sensor_id;sensor_type;location;lat;lon;timestamp;pressure;altitude;pressure_sealevel;temperature;humidity
7309;BME280;3695;53.330;9.876;2023-06-19T00:00:59;101666.56;;;22.04;100.00
7309;BME280;3695;53.330;9.876;2023-06-19T00:03:26;101665.16;;;22.01;100.00
7309;BME280;3695;53.330;9.876;2023-06-19T00:05:52;101662.69;;;22.05;100.00
7309;BME280;3695;53.330;9.876;2023-06-19T00:08:20;101660.44;;;22.02;100.00
7309;BME280;3695;53.330;9.876;2023-06-19T00:10:47;101658.78;;;22.00;100.00
7309;BME280;3695;53.330;9.876;2023-06-19T00:13:14;101656.06;;;22.06;100.00
7309;BME280;3695;53.330;9.876;2023-06-19T00:15:41;101659.06;;;21.99;100.00
7309;BME280;3695;53.330;9.876;2023-06-19T00:18:07;101653.81;;;22.03;100.00
7309;BME280;3695;53.330;9.876;2023-06-19T00:20:35;101645.00;;;21.95;100.00
7309;BME280;3695;53.330;9.876;2023-06-19T00:23:01;101657.13;;;21.99;100.00
7309;BME280;3695;53.330;9.876;2023-06-19T00:25:29;101657.13;;;21.99;100.00
7309;BME280;3695;53.330;9.876;2023-06-19T00:27:55;101649.66;;;21.90;100.00
7309;BME280;3695;53.330;9.876;2023-06-19T00:30:22;101648.56;;;21.91;100.00
7309;BME280;3695;53.330;9.876;2023-06-19T00:32:48;101650.50;;;21.85;100.00
7309;BME280;3695;53.330;9.876;2023-06-19T00:35:18;101650.22;;;21.92;100.00
7309;BME280;3695;53.330;9.876;2023-06-19T00:37:44;101644.16;;;21.95;100.00
7309;BME280;3695;53.330;9.876;2023-06-19T00:40:16;101637.25;;;21.87;100.00
7309;BME280;3695;53.330;9.876;2023-06-19T00:42:46;101650.50;;;21.95;100.00
7309;BME280;3695;53.330;9.876;2023-06-19T00:45:12;101640.56;;;21.89;100.00
7309;BME280;3695;53.330;9.876;2023-06-19T00:47:38;101643.88;;;21.86;100.00
7309;BME280;3695;53.330;9.876;2023-06-19T00:50:06;101638.91;;;21.88;100.00
7309;BME280;3695;53.330;9.876;2023-06-19T00:52:33;101641.13;;;21.86;100.00
7309;BME280;3695;53.330;9.876;2023-06-19T00:55:00;101641.09;;;21.81;100.00
7309;BME280;3695;53.330;9.876;2023-06-19T00:57:26;101640.84;;;21.83;100.00
7309;BME280;3695;53.330;9.876;2023-06-19T00:59:55;101632.78;;;21.71;100.00
7309;BME280;3695;53.330;9.876;2023-06-19T01:02:22;101636.03;;;21.48;100.00
7309;BME280;3695;53.330;9.876;2023-06-19T01:04:49;101640.75;;;21.05;100.00
7309;BME280;3695;53.330;9.876;2023-06-19T01:07:19;101632.50;;;21.10;100.00
7309;BME280;3695;53.330;9.876;2023-06-19T01:09:51;101615.16;;;21.15;100.00
7309;BME280;3695;53.330;9.876;2023-06-19T01:12:21;101611.66;;;21.24;100.00
7309;BME280;3695;53.330;9.876;2023-06-19T01:14:54;101610.81;;;21.24;100.00
7309;BME280;3695;53.330;9.876;2023-06-19T01:17:23;101608.94;;;21.29;100.00
7309;BME280;3695;53.330;9.876;2023-06-19T01:19:50;101611.81;;;21.08;100.00
7309;BME280;3695;53.330;9.876;2023-06-19T01:22:25;101616.84;;;21.21;100.00
7309;BME280;3695;53.330;9.876;2023-06-19T01:24:52;101619.91;;;21.24;100.00
7309;BME280;3695;53.330;9.876;2023-06-19T01:27:18;101613.81;;;21.22;100.00
7309;BME280;3695;53.330;9.876;2023-06-19T01:29:45;101617.16;;;21.24;100.00
7309;BME280;3695;53.330;9.876;2023-06-19T01:32:15;101612.97;;;21.22;100.00
7309;BME280;3695;53.330;9.876;2023-06-19T01:34:42;101612.75;;;21.28;100.00
7309;BME280;3695;53.330;9.876;2023-06-19T01:37:09;101612.75;;;21.28;100.00
7309;BME280;3695;53.330;9.876;2023-06-19T01:39:38;101607.00;;;21.30;100.00
7309;BME280;3695;53.330;9.876;2023-06-19T01:42:06;101598.97;;;21.23;100.00
7309;BME280;3695;53.330;9.876;2023-06-19T01:44:35;101601.13;;;21.21;100.00
7309;BME280;3695;53.330;9.876;2023-06-19T01:47:08;101591.75;;;21.22;100.00
7309;BME280;3695;53.330;9.876;2023-06-19T01:49:34;101589.81;;;21.18;100.00
7309;BME280;3695;53.330;9.876;2023-06-19T01:52:01;101593.38;;;21.13;100.00
7309;BME280;3695;53.330;9.876;2023-06-19T01:54:27;101590.34;;;21.15;100.00
7309;BME280;3695;53.330;9.876;2023-06-19T01:56:55;101586.84;;;21.24;100.00
7309;BME280;3695;53.330;9.876;2023-06-19T01:59:22;101592.34;;;21.24;100.00
7309;BME280;3695;53.330;9.876;2023-06-19T02:01:48;101577.09;;;21.06;100.00
7309;BME280;3695;53.330;9.876;2023-06-19T02:04:15;101584.28;;;21.18;100.00
7309;BME280;3695;53.330;9.876;2023-06-19T02:06:41;101576.84;;;21.18;100.00
7309;BME280;3695;53.330;9.876;2023-06-19T02:09:08;101577.09;;;21.06;100.00
7309;BME280;3695;53.330;9.876;2023-06-19T02:11:34;101582.34;;;21.13;100.00
7309;BME280;3695;53.330;9.876;2023-06-19T02:14:02;101580.72;;;21.17;100.00
7309;BME280;3695;53.330;9.876;2023-06-19T02:16:28;101578.75;;;21.13;100.00
7309;BME280;3695;53.330;9.876;2023-06-19T02:18:55;101585.66;;;21.10;100.00
7309;BME280;3695;53.330;9.876;2023-06-19T02:21:22;101580.69;;;21.07;100.00
7309;BME280;3695;53.330;9.876;2023-06-19T02:23:49;101581.72;;;20.96;100.00
7309;BME280;3695;53.330;9.876;2023-06-19T02:26:15;101587.88;;;21.18;100.00
7309;BME280;3695;53.330;9.876;2023-06-19T02:28:42;101574.38;;;21.22;100.00
7309;BME280;3695;53.330;9.876;2023-06-19T02:31:09;101583.97;;;21.04;100.00
7309;BME280;3695;53.330;9.876;2023-06-19T02:33:36;101574.09;;;21.13;100.00
7309;BME280;3695;53.330;9.876;2023-06-19T02:36:03;101572.16;;;21.14;100.00
7309;BME280;3695;53.330;9.876;2023-06-19T02:38:30;101578.47;;;21.04;100.00
7309;BME280;3695;53.330;9.876;2023-06-19T02:40:56;101564.97;;;21.13;100.00
7309;BME280;3695;53.330;9.876;2023-06-19T02:43:25;101558.66;;;21.17;100.00
7309;BME280;3695;53.330;9.876;2023-06-19T02:45:52;101561.41;;;21.17;100.00
7309;BME280;3695;53.330;9.876;2023-06-19T02:48:19;101559.19;;;21.14;100.00
7309;BME280;3695;53.330;9.876;2023-06-19T02:50:48;101559.22;;;21.19;100.00
7309;BME280;3695;53.330;9.876;2023-06-19T02:53:15;101563.59;;;21.05;100.00
7309;BME280;3695;53.330;9.876;2023-06-19T02:55:42;101557.28;;;21.15;100.00
7309;BME280;3695;53.330;9.876;2023-06-19T02:58:08;101558.66;;;21.12;100.00
7309;BME280;3695;53.330;9.876;2023-06-19T03:00:34;101557.56;;;21.18;100.00
7309;BME280;3695;53.330;9.876;2023-06-19T03:03:01;101556.19;;;21.21;100.00
7309;BME280;3695;53.330;9.876;2023-06-19T03:05:29;101557.53;;;21.13;100.00
7309;BME280;3695;53.330;9.876;2023-06-19T03:07:55;101551.19;;;21.08;100.00
7309;BME280;3695;53.330;9.876;2023-06-19T03:10:21;101548.72;;;21.16;100.00
7309;BME280;3695;53.330;9.876;2023-06-19T03:12:48;101546.50;;;21.13;100.00
7309;BME280;3695;53.330;9.876;2023-06-19T03:15:14;101546.00;;;21.21;100.00
7309;BME280;3695;53.330;9.876;2023-06-19T03:17:41;101538.81;;;21.15;100.00
7309;BME280;3695;53.330;9.876;2023-06-19T03:20:08;101542.06;;;21.02;100.00
7309;BME280;3695;53.330;9.876;2023-06-19T03:22:39;101535.22;;;21.15;100.00
7309;BME280;3695;53.330;9.876;2023-06-19T03:25:07;101529.16;;;21.18;100.00
7309;BME280;3695;53.330;9.876;2023-06-19T03:27:33;101527.75;;;21.10;100.00
7309;BME280;3695;53.330;9.876;2023-06-19T03:30:00;101521.16;;;21.11;100.00
7309;BME280;3695;53.330;9.876;2023-06-19T03:32:27;101517.84;;;21.09;100.00
7309;BME280;3695;53.330;9.876;2023-06-19T03:34:54;101511.72;;;20.92;100.00
7309;BME280;3695;53.330;9.876;2023-06-19T03:37:20;101509.28;;;21.05;100.00
7309;BME280;3695;53.330;9.876;2023-06-19T03:39:48;101506.53;;;21.11;100.00
7309;BME280;3695;53.330;9.876;2023-06-19T03:42:15;101507.09;;;21.08;100.00
7309;BME280;3695;53.330;9.876;2023-06-19T03:44:41;101517.84;;;21.14;100.00
7309;BME280;3695;53.330;9.876;2023-06-19T03:47:07;101520.84;;;21.02;100.00
7309;BME280;3695;53.330;9.876;2023-06-19T03:49:34;101515.63;;;21.11;100.00
7309;BME280;3695;53.330;9.876;2023-06-19T03:52:00;101513.41;;;21.03;100.00
7309;BME280;3695;53.330;9.876;2023-06-19T03:54:27;101523.63;;;21.08;100.00
7309;BME280;3695;53.330;9.876;2023-06-19T03:56:55;101519.50;;;21.10;100.00
7309;BME280;3695;53.330;9.876;2023-06-19T03:59:21;101521.13;;;21.06;100.00
7309;BME280;3695;53.330;9.876;2023-06-19T04:01:47;101524.38;;;20.88;100.00
7309;BME280;3695;53.330;9.876;2023-06-19T04:04:14;101524.16;;;21.04;100.00
7309;BME280;3695;53.330;9.876;2023-06-19T04:06:40;101522.53;;;21.14;100.00
7309;BME280;3695;53.330;9.876;2023-06-19T04:09:07;101525.56;;;21.12;100.00
7309;BME280;3695;53.330;9.876;2023-06-19T04:11:34;101525.84;;;21.11;100.00
7309;BME280;3695;53.330;9.876;2023-06-19T04:14:01;101531.03;;;21.02;100.00
7309;BME280;3695;53.330;9.876;2023-06-19T04:16:28;101522.75;;;20.97;100.00
7309;BME280;3695;53.330;9.876;2023-06-19T04:18:54;101524.97;;;20.95;100.00
7309;BME280;3695;53.330;9.876;2023-06-19T04:21:21;101520.59;;;21.09;100.00
7309;BME280;3695;53.330;9.876;2023-06-19T04:23:47;101522.78;;;21.02;100.00
7309;BME280;3695;53.330;9.876;2023-06-19T04:26:14;101521.97;;;21.06;100.00
7309;BME280;3695;53.330;9.876;2023-06-19T04:28:40;101522.78;;;21.02;100.00
7309;BME280;3695;53.330;9.876;2023-06-19T04:31:08;101532.69;;;21.03;100.00
7309;BME280;3695;53.330;9.876;2023-06-19T04:33:34;101532.69;;;21.03;100.00
7309;BME280;3695;53.330;9.876;2023-06-19T04:36:01;101518.34;;;20.96;100.00
7309;BME280;3695;53.330;9.876;2023-06-19T04:38:27;101517.00;;;21.03;100.00
7309;BME280;3695;53.330;9.876;2023-06-19T04:40:54;101513.41;;;20.98;100.00
7309;BME280;3695;53.330;9.876;2023-06-19T04:43:22;101511.47;;;21.03;100.00
7309;BME280;3695;53.330;9.876;2023-06-19T04:45:49;101520.31;;;21.05;100.00
7309;BME280;3695;53.330;9.876;2023-06-19T04:48:17;101517.00;;;21.03;100.00
7309;BME280;3695;53.330;9.876;2023-06-19T04:50:44;101519.16;;;20.91;100.00
7309;BME280;3695;53.330;9.876;2023-06-19T04:53:10;101510.38;;;20.99;100.00
7309;BME280;3695;53.330;9.876;2023-06-19T04:55:38;101520.53;;;20.94;100.00
7309;BME280;3695;53.330;9.876;2023-06-19T04:58:04;101512.81;;;20.91;100.00
7309;BME280;3695;53.330;9.876;2023-06-19T05:00:31;101515.63;;;21.06;100.00
7309;BME280;3695;53.330;9.876;2023-06-19T05:02:57;101524.47;;;21.13;100.00
7309;BME280;3695;53.330;9.876;2023-06-19T05:05:27;101517.84;;;21.14;100.00
7309;BME280;3695;53.330;9.876;2023-06-19T05:07:53;101525.00;;;21.05;100.00
7309;BME280;3695;53.330;9.876;2023-06-19T05:10:20;101531.59;;;20.99;100.00
7309;BME280;3695;53.330;9.876;2023-06-19T05:12:46;101520.59;;;21.09;100.00
7309;BME280;3695;53.330;9.876;2023-06-19T05:15:12;101524.22;;;21.20;100.00
7309;BME280;3695;53.330;9.876;2023-06-19T05:17:39;101529.41;;;21.11;100.00
7309;BME280;3695;53.330;9.876;2023-06-19T05:20:06;101539.34;;;21.17;100.00
7309;BME280;3695;53.330;9.876;2023-06-19T05:22:34;101541.78;;;20.98;100.00
7309;BME280;3695;53.330;9.876;2023-06-19T05:25:02;101541.81;;;21.09;100.00
7309;BME280;3695;53.330;9.876;2023-06-19T05:27:29;101546.50;;;21.08;100.00
7309;BME280;3695;53.330;9.876;2023-06-19T05:29:55;101552.53;;;20.95;100.00
7309;BME280;3695;53.330;9.876;2023-06-19T05:32:21;101559.44;;;21.02;100.00
7309;BME280;3695;53.330;9.876;2023-06-19T05:34:48;101563.03;;;21.08;100.00
7309;BME280;3695;53.330;9.876;2023-06-19T05:37:15;101556.38;;;20.99;100.00
7309;BME280;3695;53.330;9.876;2023-06-19T05:39:43;101570.16;;;20.94;100.00
7309;BME280;3695;53.330;9.876;2023-06-19T05:42:09;101570.22;;;21.09;100.00
7309;BME280;3695;53.330;9.876;2023-06-19T05:44:36;101573.47;;;20.96;100.00
7309;BME280;3695;53.330;9.876;2023-06-19T05:47:02;101586.13;;;20.92;100.00
7309;BME280;3695;53.330;9.876;2023-06-19T05:49:29;101589.44;;;20.94;100.00
7309;BME280;3695;53.330;9.876;2023-06-19T05:51:55;101594.22;;;21.19;100.00
7309;BME280;3695;53.330;9.876;2023-06-19T05:54:24;101600.47;;;20.94;100.00
7309;BME280;3695;53.330;9.876;2023-06-19T05:56:52;101585.59;;;21.00;100.00
7309;BME280;3695;53.330;9.876;2023-06-19T05:59:18;101590.91;;;21.12;100.00
7309;BME280;3695;53.330;9.876;2023-06-19T06:01:45;101593.88;;;21.00;100.00
7309;BME280;3695;53.330;9.876;2023-06-19T06:04:11;101585.63;;;21.05;100.00
7309;BME280;3695;53.330;9.876;2023-06-19T06:06:39;101583.63;;;20.90;100.00
7309;BME280;3695;53.330;9.876;2023-06-19T06:09:05;101576.19;;;20.91;100.00
7309;BME280;3695;53.330;9.876;2023-06-19T06:11:34;101589.72;;;20.97;100.00
7309;BME280;3695;53.330;9.876;2023-06-19T06:14:02;101590.81;;;20.96;100.00
7309;BME280;3695;53.330;9.876;2023-06-19T06:16:29;101597.53;;;21.16;100.00
7309;BME280;3695;53.330;9.876;2023-06-19T06:18:55;101591.19;;;21.20;100.00
7309;BME280;3695;53.330;9.876;2023-06-19T06:21:22;101580.25;;;21.30;100.00
7309;BME280;3695;53.330;9.876;2023-06-19T06:23:48;101580.81;;;21.32;100.00
7309;BME280;3695;53.330;9.876;2023-06-19T06:26:15;101588.50;;;21.25;100.00
7309;BME280;3695;53.330;9.876;2023-06-19T06:28:41;101581.81;;;21.16;100.00
7309;BME280;3695;53.330;9.876;2023-06-19T06:31:09;101577.13;;;21.17;100.00
7309;BME280;3695;53.330;9.876;2023-06-19T06:33:35;101567.69;;;20.97;100.00
7309;BME280;3695;53.330;9.876;2023-06-19T06:36:02;101567.63;;;20.82;100.00
7309;BME280;3695;53.330;9.876;2023-06-19T06:38:28;101566.84;;;20.97;100.00
7309;BME280;3695;53.330;9.876;2023-06-19T06:40:55;101563.06;;;21.18;100.00
7309;BME280;3695;53.330;9.876;2023-06-19T06:43:22;101565.88;;;21.23;100.00
7309;BME280;3695;53.330;9.876;2023-06-19T06:45:48;101563.72;;;21.30;100.00
7309;BME280;3695;53.330;9.876;2023-06-19T06:48:16;101569.53;;;21.44;100.00
7309;BME280;3695;53.330;9.876;2023-06-19T06:50:42;101584.84;;;21.20;100.00
7309;BME280;3695;53.330;9.876;2023-06-19T06:53:09;101594.28;;;21.24;100.00
7309;BME280;3695;53.330;9.876;2023-06-19T06:55:36;101596.66;;;21.05;100.00
7309;BME280;3695;53.330;9.876;2023-06-19T06:58:02;101590.06;;;21.11;100.00
7309;BME280;3695;53.330;9.876;2023-06-19T07:00:28;101589.81;;;21.18;100.00
7309;BME280;3695;53.330;9.876;2023-06-19T07:02:55;101589.28;;;21.21;100.00
7309;BME280;3695;53.330;9.876;2023-06-19T07:05:23;101591.59;;;21.39;100.00
7309;BME280;3695;53.330;9.876;2023-06-19T07:07:49;101586.66;;;21.46;100.00
7309;BME280;3695;53.330;9.876;2023-06-19T07:10:16;101586.41;;;21.63;100.00
7309;BME280;3695;53.330;9.876;2023-06-19T07:12:46;101589.75;;;21.75;100.00
7309;BME280;3695;53.330;9.876;2023-06-19T07:15:12;101587.56;;;21.97;100.00
7309;BME280;3695;53.330;9.876;2023-06-19T07:17:39;101589.78;;;21.85;100.00
7309;BME280;3695;53.330;9.876;2023-06-19T07:20:06;101593.91;;;21.88;100.00
7309;BME280;3695;53.330;9.876;2023-06-19T07:22:34;101585.94;;;22.12;100.00
7309;BME280;3695;53.330;9.876;2023-06-19T07:25:01;101590.38;;;22.13;100.00
7309;BME280;3695;53.330;9.876;2023-06-19T07:27:29;101598.66;;;22.18;100.00
7309;BME280;3695;53.330;9.876;2023-06-19T07:29:55;101590.13;;;22.24;100.00
7309;BME280;3695;53.330;9.876;2023-06-19T07:32:22;101595.88;;;22.18;100.00
7309;BME280;3695;53.330;9.876;2023-06-19T07:34:48;101590.91;;;22.20;100.00
7309;BME280;3695;53.330;9.876;2023-06-19T07:37:15;101594.22;;;22.22;100.00
7309;BME280;3695;53.330;9.876;2023-06-19T07:39:44;101597.00;;;22.27;100.00
7309;BME280;3695;53.330;9.876;2023-06-19T07:42:10;101592.03;;;22.34;100.00
7309;BME280;3695;53.330;9.876;2023-06-19T07:44:37;101583.75;;;22.29;100.00
7309;BME280;3695;53.330;9.876;2023-06-19T07:47:03;101575.44;;;22.39;100.00
7309;BME280;3695;53.330;9.876;2023-06-19T07:49:30;101577.38;;;22.49;100.00
7309;BME280;3695;53.330;9.876;2023-06-19T07:51:56;101577.09;;;22.50;100.00
7309;BME280;3695;53.330;9.876;2023-06-19T07:54:23;101574.84;;;22.68;100.00
7309;BME280;3695;53.330;9.876;2023-06-19T07:56:51;101581.22;;;22.73;100.00
7309;BME280;3695;53.330;9.876;2023-06-19T07:59:17;101582.59;;;22.76;100.00
7309;BME280;3695;53.330;9.876;2023-06-19T08:01:44;101593.38;;;22.82;100.00
7309;BME280;3695;53.330;9.876;2023-06-19T08:04:11;101581.44;;;22.92;100.00
7309;BME280;3695;53.330;9.876;2023-06-19T08:06:37;101586.41;;;22.95;100.00
7309;BME280;3695;53.330;9.876;2023-06-19T08:09:04;101582.22;;;23.08;100.00
7309;BME280;3695;53.330;9.876;2023-06-19T08:11:31;101584.63;;;23.30;100.00
7309;BME280;3695;53.330;9.876;2023-06-19T08:13:59;101584.63;;;23.30;100.00
7309;BME280;3695;53.330;9.876;2023-06-19T08:16:26;101576.91;;;23.27;100.00
7309;BME280;3695;53.330;9.876;2023-06-19T08:18:52;101573.44;;;23.55;100.00
7309;BME280;3695;53.330;9.876;2023-06-19T08:21:19;101555.16;;;23.59;100.00
7309;BME280;3695;53.330;9.876;2023-06-19T08:23:46;101553.75;;;23.62;100.00
7309;BME280;3695;53.330;9.876;2023-06-19T08:26:13;101552.34;;;23.69;100.00
7309;BME280;3695;53.330;9.876;2023-06-19T08:28:39;101549.03;;;23.67;100.00
7309;BME280;3695;53.330;9.876;2023-06-19T08:31:08;101543.94;;;23.79;100.00
7309;BME280;3695;53.330;9.876;2023-06-19T08:33:34;101541.84;;;24.00;100.00
7309;BME280;3695;53.330;9.876;2023-06-19T08:36:01;101541.09;;;24.24;100.00
7309;BME280;3695;53.330;9.876;2023-06-19T08:38:28;101538.31;;;24.53;100.00
7309;BME280;3695;53.330;9.876;2023-06-19T08:40:55;101542.69;;;24.59;100.00
7309;BME280;3695;53.330;9.876;2023-06-19T08:43:21;101529.63;;;24.64;100.00
7309;BME280;3695;53.330;9.876;2023-06-19T08:45:54;101534.22;;;24.74;100.00
7309;BME280;3695;53.330;9.876;2023-06-19T08:48:27;101530.19;;;24.85;100.00
7309;BME280;3695;53.330;9.876;2023-06-19T08:50:55;101521.44;;;24.97;100.00
7309;BME280;3695;53.330;9.876;2023-06-19T08:53:21;101530.69;;;25.35;100.00
7309;BME280;3695;53.330;9.876;2023-06-19T08:55:48;101526.69;;;25.41;100.00
7309;BME280;3695;53.330;9.876;2023-06-19T08:58:21;101525.19;;;25.49;100.00
7309;BME280;3695;53.330;9.876;2023-06-19T09:00:49;101534.50;;;25.39;100.00
7309;BME280;3695;53.330;9.876;2023-06-19T09:03:19;101542.91;;;25.34;100.00
7309;BME280;3695;53.330;9.876;2023-06-19T09:05:47;101532.78;;;25.43;100.00
7309;BME280;3695;53.330;9.876;2023-06-19T09:08:16;101542.75;;;25.44;100.00
7309;BME280;3695;53.330;9.876;2023-06-19T09:10:53;101535.41;;;25.53;100.00
7309;BME280;3695;53.330;9.876;2023-06-19T09:13:19;101533.75;;;25.90;100.00
7309;BME280;3695;53.330;9.876;2023-06-19T09:15:46;101532.53;;;25.96;100.00
7309;BME280;3695;53.330;9.876;2023-06-19T09:18:12;101537.91;;;26.39;100.00
7309;BME280;3695;53.330;9.876;2023-06-19T09:20:40;101528.38;;;26.58;100.00
7309;BME280;3695;53.330;9.876;2023-06-19T09:23:11;101532.88;;;26.41;100.00
7309;BME280;3695;53.330;9.876;2023-06-19T09:25:45;101527.47;;;26.30;100.00
7309;BME280;3695;53.330;9.876;2023-06-19T09:28:17;101530.34;;;26.25;100.00
7309;BME280;3695;53.330;9.876;2023-06-19T09:30:54;101528.78;;;26.06;100.00
7309;BME280;3695;53.330;9.876;2023-06-19T09:33:21;101526.94;;;25.82;100.00
7309;BME280;3695;53.330;9.876;2023-06-19T09:35:49;101530.16;;;25.89;100.00
7309;BME280;3695;53.330;9.876;2023-06-19T09:38:17;101531.06;;;25.85;100.00
7309;BME280;3695;53.330;9.876;2023-06-19T09:40:47;101519.94;;;25.85;100.00
7309;BME280;3695;53.330;9.876;2023-06-19T09:43:16;101529.84;;;25.91;100.00
7309;BME280;3695;53.330;9.876;2023-06-19T09:45:45;101521.41;;;25.96;100.00
7309;BME280;3695;53.330;9.876;2023-06-19T09:48:14;101530.44;;;25.88;100.00
7309;BME280;3695;53.330;9.876;2023-06-19T09:50:45;101529.50;;;25.60;100.00
7309;BME280;3695;53.330;9.876;2023-06-19T09:53:14;101531.56;;;25.87;100.00
7309;BME280;3695;53.330;9.876;2023-06-19T09:55:42;101530.47;;;26.20;100.00
7309;BME280;3695;53.330;9.876;2023-06-19T09:58:09;101530.09;;;26.41;100.00
7309;BME280;3695;53.330;9.876;2023-06-19T10:00:36;101527.88;;;26.10;100.00
7309;BME280;3695;53.330;9.876;2023-06-19T10:03:03;101534.06;;;26.21;100.00
7309;BME280;3695;53.330;9.876;2023-06-19T10:05:31;101531.16;;;26.12;100.00
7309;BME280;3695;53.330;9.876;2023-06-19T10:07:57;101529.94;;;26.18;100.00
7309;BME280;3695;53.330;9.876;2023-06-19T10:10:26;101534.44;;;26.14;100.00
7309;BME280;3695;53.330;9.876;2023-06-19T10:12:57;101528.53;;;26.34;100.00
7309;BME280;3695;53.330;9.876;2023-06-19T10:15:25;101534.16;;;26.29;100.00
7309;BME280;3695;53.330;9.876;2023-06-19T10:17:53;101530.34;;;26.25;100.00
7309;BME280;3695;53.330;9.876;2023-06-19T10:20:25;101531.69;;;26.60;100.00
7309;BME280;3695;53.330;9.876;2023-06-19T10:22:57;101532.97;;;26.35;100.00
7309;BME280;3695;53.330;9.876;2023-06-19T10:25:27;101541.22;;;26.41;100.00
7309;BME280;3695;53.330;9.876;2023-06-19T10:27:55;101534.34;;;26.79;100.00
7309;BME280;3695;53.330;9.876;2023-06-19T10:30:21;101526.78;;;26.99;100.00
7309;BME280;3695;53.330;9.876;2023-06-19T10:32:48;101524.56;;;26.54;100.00
7309;BME280;3695;53.330;9.876;2023-06-19T10:35:16;101525.81;;;26.62;100.00
7309;BME280;3695;53.330;9.876;2023-06-19T10:37:44;101525.06;;;27.25;100.00
7309;BME280;3695;53.330;9.876;2023-06-19T10:40:11;101513.69;;;27.35;100.00
7309;BME280;3695;53.330;9.876;2023-06-19T10:42:38;101517.72;;;27.29;100.00
7309;BME280;3695;53.330;9.876;2023-06-19T10:45:08;101518.44;;;27.35;100.00
7309;BME280;3695;53.330;9.876;2023-06-19T10:47:37;101524.78;;;27.13;100.00
7309;BME280;3695;53.330;9.876;2023-06-19T10:50:04;101520.91;;;27.36;100.00
7309;BME280;3695;53.330;9.876;2023-06-19T10:52:31;101512.78;;;27.26;100.00
7309;BME280;3695;53.330;9.876;2023-06-19T10:54:58;101512.31;;;27.10;100.00
7309;BME280;3695;53.330;9.876;2023-06-19T10:57:28;101517.25;;;26.86;100.00
7309;BME280;3695;53.330;9.876;2023-06-19T10:59:55;101515.53;;;27.04;100.00
7309;BME280;3695;53.330;9.876;2023-06-19T11:02:23;101512.13;;;27.43;100.00
7309;BME280;3695;53.330;9.876;2023-06-19T11:04:52;101505.09;;;27.81;100.00
7309;BME280;3695;53.330;9.876;2023-06-19T11:07:18;101503.06;;;27.73;100.00
7309;BME280;3695;53.330;9.876;2023-06-19T11:09:45;101508.78;;;28.21;100.00
7309;BME280;3695;53.330;9.876;2023-06-19T11:12:11;101507.06;;;28.03;100.00
7309;BME280;3695;53.330;9.876;2023-06-19T11:14:38;101512.78;;;27.98;100.00
7309;BME280;3695;53.330;9.876;2023-06-19T11:17:07;101510.97;;;28.25;100.00
7309;BME280;3695;53.330;9.876;2023-06-19T11:19:35;101519.06;;;28.12;100.00
7309;BME280;3695;53.330;9.876;2023-06-19T11:22:04;101516.66;;;28.19;100.00
7309;BME280;3695;53.330;9.876;2023-06-19T11:24:32;101504.16;;;28.79;100.00
7309;BME280;3695;53.330;9.876;2023-06-19T11:26:58;101510.06;;;28.77;100.00
7309;BME280;3695;53.330;9.876;2023-06-19T11:29:26;101512.94;;;28.02;100.00
7309;BME280;3695;53.330;9.876;2023-06-19T11:32:04;101516.28;;;27.90;100.00
7309;BME280;3695;53.330;9.876;2023-06-19T11:34:31;101520.06;;;27.49;100.00
7309;BME280;3695;53.330;9.876;2023-06-19T11:37:00;101513.72;;;27.94;100.00
7309;BME280;3695;53.330;9.876;2023-06-19T11:39:27;101519.84;;;28.04;100.00
7309;BME280;3695;53.330;9.876;2023-06-19T11:41:54;101511.44;;;28.89;100.00
7309;BME280;3695;53.330;9.876;2023-06-19T11:44:20;101512.22;;;28.41;100.00
7309;BME280;3695;53.330;9.876;2023-06-19T11:46:47;101517.81;;;28.41;100.00
7309;BME280;3695;53.330;9.876;2023-06-19T11:49:15;101514.84;;;27.70;100.00
7309;BME280;3695;53.330;9.876;2023-06-19T11:51:42;101529.72;;;28.72;100.00
7309;BME280;3695;53.330;9.876;2023-06-19T11:54:11;101519.88;;;28.66;100.00
7309;BME280;3695;53.330;9.876;2023-06-19T11:56:38;101529.59;;;28.15;100.00
7309;BME280;3695;53.330;9.876;2023-06-19T11:59:05;101525.25;;;28.54;100.00
7309;BME280;3695;53.330;9.876;2023-06-19T12:01:32;101527.72;;;28.64;100.00
7309;BME280;3695;53.330;9.876;2023-06-19T12:03:59;101535.06;;;28.51;100.00
7309;BME280;3695;53.330;9.876;2023-06-19T12:06:26;101540.28;;;28.44;100.00
7309;BME280;3695;53.330;9.876;2023-06-19T12:08:53;101547.75;;;27.90;100.00
7309;BME280;3695;53.330;9.876;2023-06-19T12:11:21;101549.13;;;27.93;100.00
7309;BME280;3695;53.330;9.876;2023-06-19T12:13:47;101544.16;;;27.90;100.00
7309;BME280;3695;53.330;9.876;2023-06-19T12:16:14;101544.38;;;27.57;100.00
7309;BME280;3695;53.330;9.876;2023-06-19T12:18:41;101533.28;;;28.02;100.00
7309;BME280;3695;53.330;9.876;2023-06-19T12:21:08;101545.19;;;27.94;100.00
7309;BME280;3695;53.330;9.876;2023-06-19T12:23:34;101543.22;;;27.72;100.00
7309;BME280;3695;53.330;9.876;2023-06-19T12:26:01;101542.91;;;27.74;100.00
7309;BME280;3695;53.330;9.876;2023-06-19T12:28:28;101535.03;;;28.20;100.00
7309;BME280;3695;53.330;9.876;2023-06-19T12:30:55;101540.00;;;28.55;100.00
7309;BME280;3695;53.330;9.876;2023-06-19T12:33:22;101554.63;;;28.60;100.00
7309;BME280;3695;53.330;9.876;2023-06-19T12:35:48;101540.34;;;28.93;100.00
7309;BME280;3695;53.330;9.876;2023-06-19T12:38:15;101544.81;;;28.71;100.00
7309;BME280;3695;53.330;9.876;2023-06-19T12:40:43;101563.03;;;28.38;100.00
7309;BME280;3695;53.330;9.876;2023-06-19T12:43:10;101553.03;;;28.37;100.00
7309;BME280;3695;53.330;9.876;2023-06-19T12:45:37;101547.84;;;28.44;100.00
7309;BME280;3695;53.330;9.876;2023-06-19T12:48:06;101544.47;;;28.64;100.00
7309;BME280;3695;53.330;9.876;2023-06-19T12:50:33;101554.84;;;29.12;100.00
7309;BME280;3695;53.330;9.876;2023-06-19T12:52:59;101552.22;;;28.76;100.00
7309;BME280;3695;53.330;9.876;2023-06-19T12:55:26;101545.34;;;29.30;100.00
7309;BME280;3695;53.330;9.876;2023-06-19T12:57:52;101550.88;;;28.65;100.00
7309;BME280;3695;53.330;9.876;2023-06-19T13:00:19;101555.41;;;29.74;100.00